Milton, FL

8:45 AM CDT on July 26, 2016 (GMT -0500)
JnK Ranch | | Change Station

Elev 210 ft 30.76 °N, 87.05 °W | Updated 57 seconds ago

Scattered Clouds
Scattered Clouds
81.9 °F
Feels Like 91 °F
N
2.0
Wind Variable Wind from ENE
Gusts 12.0 mph

Today
High -- | Low -- °F
--% Chance of Precip.
Yesterday
High -- | Low -- °F
Precip. -- in
Pressure 29.95 in
Visibility 9.0 miles
Clouds Few 1700 ft
Scattered Clouds 2800 ft
Scattered Clouds 25000 ft
Heat Index 91 °F
Dew Point 78 °F
Humidity 89%
Rainfall 0.00 in
Snow Depth Not available.
6:02 AM 7:46 PM
Waning Gibbous, 54% visible
METAR KNDZ 261256Z 08009KT 9SM FEW017 SCT028 SCT250 28/26 A3000 RMK AO2 SLP141 T02780256 $
Pressure 29.95 in
Visibility 9.0 miles
Clouds Few 1700 ft
Scattered Clouds 2800 ft
Scattered Clouds 25000 ft
Heat Index 91 °F
Dew Point 78 °F
Humidity 89%
Rainfall 0.00 in
Snow Depth Not available.
6:02 AM 7:46 PM
Waning Gibbous, 54% visible
METAR KNDZ 261256Z 08009KT 9SM FEW017 SCT028 SCT250 28/26 A3000 RMK AO2 SLP141 T02780256 $

10-Day Weather Forecast

Almanac

Astronomy

Jul. 26, 2016 Rise Set
Actual Time
Civil Twilight
Nautical Twilight
Astronomical Twilight
Moon
Length of Visible Light
Length of Day
Tomorrow will be .
, % of the Moon is Illuminated

Today's Extremes

State Highs State Lows

Community

WunderPhotos

Upload Photos

1,927,587 photos uploaded!

WunderBlog® & News

Nearby

Air Quality

  Air Quality AQ Index Pollutant
Not available.

Snow Depth

Station Depth Elevation

Earthquake Activity

City Distance Mag. Time & Date
Minimum magnitude displayed is 2.5.

Coastal Water Temperatures

Place Temperature

Stations

Nearby Weather Stations

Station Location Temp. Windchill Dew Point Humidity Wind Precip. Elev Updated Type
                   

Watches & Warnings

There are currently no watches in effect.